Time;durP1;ratioP1;P1;durP2;ratioP2;P2;SDS_P1;SDS_P2;PMS_P1;PMS_P2;Temp;Humidity;BMP_temperature;BMP_pressure;BME280_temperature;BME280_humidity;BME280_pressure;Samples;Min_cycle;Max_cycle;Signal;HPM_P1;HPM_P2
2022/09/02 00:01:30;;;;;;;5.85;1.33;;;14.20;99.90;;;;;;5048014;28;20128;-59
2022/09/02 00:04:07;;;;;;;3.17;1.35;;;14.10;99.90;;;;;;5031877;28;20041;-59
2022/09/02 00:06:34;;;;;;;5.80;2.38;;;14.10;99.90;;;;;;5036680;28;20065;-59
2022/09/02 00:09:02;;;;;;;3.75;1.63;;;14.10;99.90;;;;;;5011074;28;20053;-51
2022/09/02 00:11:31;;;;;;;2.92;1.70;;;14.10;99.90;;;;;;4999191;28;20534;-59
2022/09/02 00:14:01;;;;;;;1.88;1.30;;;14.00;99.90;;;;;;5053349;28;20102;-58
2022/09/02 00:16:29;;;;;;;3.25;1.27;;;14.00;99.90;;;;;;5035833;28;20522;-59
2022/09/02 00:18:56;;;;;;;2.47;1.58;;;14.00;99.90;;;;;;5023337;28;20774;-59
2022/09/02 00:21:24;;;;;;;3.00;1.35;;;14.00;99.90;;;;;;5042210;28;20265;-58
2022/09/02 00:23:51;;;;;;;6.03;2.08;;;13.90;99.90;;;;;;5053131;28;20056;-59
2022/09/02 00:26:18;;;;;;;5.80;1.40;;;13.90;99.90;;;;;;5051559;28;20041;-59
2022/09/02 00:28:45;;;;;;;4.50;1.88;;;13.80;99.90;;;;;;5036782;28;20478;-59
2022/09/02 00:31:13;;;;;;;4.18;2.05;;;13.80;99.90;;;;;;5031835;28;20071;-50
2022/09/02 00:33:39;;;;;;;2.45;1.65;;;13.80;99.90;;;;;;5054155;28;20509;-60
2022/09/02 00:36:06;;;;;;;2.72;1.40;;;13.80;99.90;;;;;;5013682;28;20044;-60
2022/09/02 00:38:35;;;;;;;4.97;1.60;;;13.80;99.90;;;;;;5048322;28;20050;-60
2022/09/02 00:41:05;;;;;;;6.97;1.33;;;13.80;99.90;;;;;;5021158;28;20080;-60
2022/09/02 00:43:45;;;;;;;5.28;1.48;;;13.70;99.90;;;;;;5034866;28;20044;-59
2022/09/02 00:46:13;;;;;;;3.00;1.17;;;13.70;99.90;;;;;;5048553;28;20712;-48
2022/09/02 00:48:47;;;;;;;2.55;1.20;;;13.70;99.90;;;;;;5013329;28;20061;-49
2022/09/02 00:51:14;;;;;;;2.78;1.10;;;13.60;99.90;;;;;;5049274;28;20802;-52
2022/09/02 00:53:43;;;;;;;2.65;1.55;;;13.60;99.90;;;;;;5010072;28;20488;-52
2022/09/02 00:56:13;;;;;;;2.35;1.25;;;13.60;99.90;;;;;;5054238;28;20049;-49
2022/09/02 00:58:42;;;;;;;4.93;1.92;;;13.60;99.90;;;;;;5023468;28;20060;-60
2022/09/02 01:01:10;;;;;;;2.95;1.25;;;13.60;99.90;;;;;;5020376;28;20121;-60
2022/09/02 01:03:37;;;;;;;2.22;0.85;;;13.50;99.90;;;;;;5028739;28;20060;-59
2022/09/02 01:06:03;;;;;;;3.53;1.25;;;13.50;99.90;;;;;;5039492;28;20144;-60
2022/09/02 01:08:34;;;;;;;3.58;1.30;;;13.50;99.90;;;;;;5052387;28;20138;-60
2022/09/02 01:11:03;;;;;;;2.67;1.10;;;13.50;99.90;;;;;;5022422;28;20048;-60
2022/09/02 01:13:34;;;;;;;4.63;1.35;;;13.50;99.90;;;;;;5036871;28;20302;-60
2022/09/02 01:16:23;;;;;;;4.65;1.70;;;13.40;99.90;;;;;;5022719;28;20782;-59
2022/09/02 01:18:53;;;;;;;5.47;1.42;;;13.50;99.90;;;;;;5048806;28;20056;-59
2022/09/02 01:21:22;;;;;;;4.15;1.35;;;13.40;99.90;;;;;;5025927;28;20303;-60
2022/09/02 01:23:48;;;;;;;3.40;1.38;;;13.40;99.90;;;;;;5035601;28;20690;-60
2022/09/02 01:26:14;;;;;;;2.47;1.15;;;13.40;99.90;;;;;;5019755;28;20056;-52
2022/09/02 01:28:41;;;;;;;2.20;1.50;;;13.40;99.90;;;;;;5028706;28;20060;-47
2022/09/02 01:31:07;;;;;;;2.72;1.75;;;13.40;99.90;;;;;;5031249;28;20368;-47
2022/09/02 01:33:33;;;;;;;3.03;1.33;;;13.30;99.90;;;;;;5052359;28;20045;-50
2022/09/02 01:36:01;;;;;;;3.22;1.48;;;13.30;99.90;;;;;;5039424;28;20049;-50
2022/09/02 01:38:28;;;;;;;2.78;1.17;;;13.30;99.90;;;;;;5015044;28;20118;-59
2022/09/02 01:40:54;;;;;;;3.92;1.45;;;13.30;99.90;;;;;;5029810;28;20757;-59
2022/09/02 01:43:23;;;;;;;2.50;1.15;;;13.20;99.90;;;;;;5044963;28;20052;-52
2022/09/02 01:45:53;;;;;;;3.60;1.23;;;13.20;99.90;;;;;;5020151;28;20053;-60
2022/09/02 01:48:21;;;;;;;2.30;1.00;;;13.20;99.90;;;;;;5034506;28;20060;-60
2022/09/02 01:50:56;;;;;;;2.42;1.50;;;13.20;99.90;;;;;;5025118;28;20041;-60
2022/09/02 01:53:23;;;;;;;2.85;1.20;;;13.10;99.90;;;;;;5030073;28;20758;-60
2022/09/02 01:55:51;;;;;;;1.55;1.00;;;13.10;99.90;;;;;;5026965;28;20061;-60
2022/09/02 01:58:18;;;;;;;5.45;1.63;;;13.10;99.90;;;;;;5028194;28;20053;-60
2022/09/02 02:00:45;;;;;;;4.25;1.35;;;13.00;99.90;;;;;;5001073;28;20060;-60
2022/09/02 02:03:11;;;;;;;2.03;1.20;;;13.00;99.90;;;;;;5050049;28;20063;-59
2022/09/02 02:05:37;;;;;;;1.85;1.27;;;13.00;99.90;;;;;;5033830;28;20065;-48
2022/09/02 02:08:05;;;;;;;2.30;1.13;;;13.00;99.90;;;;;;5027208;28;20045;-50
2022/09/02 02:10:31;;;;;;;6.03;1.58;;;12.90;99.90;;;;;;5035180;28;20049;-52
2022/09/02 02:13:02;;;;;;;2.65;1.30;;;13.00;99.90;;;;;;5032814;28;20041;-47
2022/09/02 02:15:31;;;;;;;2.05;1.00;;;12.90;99.90;;;;;;5051715;28;20045;-51
2022/09/02 02:17:57;;;;;;;4.13;1.40;;;12.90;99.90;;;;;;5036554;28;20048;-51
2022/09/02 02:20:25;;;;;;;2.67;1.20;;;12.90;99.90;;;;;;5030938;28;20076;-49
2022/09/02 02:22:52;;;;;;;1.77;1.08;;;12.90;99.90;;;;;;5032045;28;21085;-60
2022/09/02 02:25:19;;;;;;;3.05;1.30;;;12.80;99.90;;;;;;5030144;28;20136;-61
2022/09/02 02:27:50;;;;;;;3.53;1.50;;;12.80;99.90;;;;;;5018718;28;20055;-60
2022/09/02 02:30:17;;;;;;;3.20;1.55;;;12.80;99.90;;;;;;5005696;28;20045;-60
2022/09/02 02:32:46;;;;;;;3.95;1.42;;;12.80;99.90;;;;;;5034110;28;20565;-60
2022/09/02 02:35:18;;;;;;;3.25;1.38;;;12.80;99.90;;;;;;5038491;28;20063;-60
2022/09/02 02:37:48;;;;;;;1.88;1.20;;;12.70;99.90;;;;;;5032821;28;20063;-60
2022/09/02 02:40:18;;;;;;;3.08;1.30;;;12.70;99.90;;;;;;5034851;28;20080;-60
2022/09/02 02:42:44;;;;;;;7.18;1.83;;;12.80;99.90;;;;;;5002527;28;20567;-61
2022/09/02 02:45:11;;;;;;;4.05;1.33;;;12.70;99.90;;;;;;5026165;28;20102;-60
2022/09/02 02:47:40;;;;;;;3.25;1.63;;;12.70;99.90;;;;;;5026883;28;20135;-60
2022/09/02 02:50:11;;;;;;;3.90;1.80;;;12.70;99.90;;;;;;5038550;28;20045;-60
2022/09/02 02:52:41;;;;;;;3.00;1.30;;;12.70;99.90;;;;;;5032270;28;20407;-60
2022/09/02 02:55:09;;;;;;;3.75;1.45;;;12.60;99.90;;;;;;5022055;28;20119;-60
2022/09/02 02:57:37;;;;;;;3.47;1.52;;;12.60;99.90;;;;;;5035644;28;20049;-62
2022/09/02 03:00:13;;;;;;;4.95;1.25;;;12.60;99.90;;;;;;5007495;28;20571;-60
2022/09/02 03:02:40;;;;;;;2.05;1.35;;;12.60;99.90;;;;;;5050621;28;20040;-61
2022/09/02 03:05:08;;;;;;;2.38;1.30;;;12.60;99.90;;;;;;5048248;28;20053;-52
2022/09/02 03:07:35;;;;;;;4.43;1.60;;;12.50;99.90;;;;;;5048783;28;20058;-51
2022/09/02 03:10:07;;;;;;;2.33;1.38;;;12.50;99.90;;;;;;5049384;28;20131;-52
2022/09/02 03:12:38;;;;;;;5.88;1.63;;;12.50;99.90;;;;;;5032397;28;20493;-51
2022/09/02 03:15:07;;;;;;;2.47;1.50;;;12.50;99.90;;;;;;5008307;28;20445;-53
2022/09/02 03:17:33;;;;;;;4.53;1.75;;;12.50;99.90;;;;;;5030239;28;20118;-51
2022/09/02 03:20:00;;;;;;;5.88;1.70;;;12.50;99.90;;;;;;5046411;28;20061;-50
2022/09/02 03:22:30;;;;;;;4.95;1.75;;;12.50;99.90;;;;;;5026488;28;20115;-53
2022/09/02 03:24:56;;;;;;;2.88;1.58;;;12.40;99.90;;;;;;5033580;28;20548;-51
2022/09/02 03:27:22;;;;;;;4.53;1.00;;;12.40;99.90;;;;;;4999117;28;20041;-52
2022/09/02 03:29:48;;;;;;;3.60;1.83;;;12.40;99.90;;;;;;5043487;28;20500;-50
2022/09/02 03:32:14;;;;;;;4.00;1.33;;;12.40;99.90;;;;;;5036842;28;20041;-50
2022/09/02 03:34:42;;;;;;;3.08;1.60;;;12.40;99.90;;;;;;5040024;28;20041;-60
2022/09/02 03:37:08;;;;;;;3.88;1.60;;;12.40;99.90;;;;;;5001222;28;20049;-60
2022/09/02 03:39:36;;;;;;;4.13;1.63;;;12.30;99.90;;;;;;5022877;28;20049;-60
2022/09/02 03:42:03;;;;;;;3.65;1.73;;;12.30;99.90;;;;;;5038572;28;20049;-60
2022/09/02 03:44:29;;;;;;;5.38;1.67;;;12.30;99.90;;;;;;5048490;28;20045;-52
2022/09/02 03:46:55;;;;;;;2.70;1.42;;;12.30;99.90;;;;;;5022174;28;20512;-52
2022/09/02 03:49:21;;;;;;;2.58;1.40;;;12.20;99.90;;;;;;5035162;28;20038;-48
2022/09/02 03:51:48;;;;;;;4.25;1.70;;;12.20;99.90;;;;;;5047178;28;20080;-54
2022/09/02 03:54:14;;;;;;;3.17;1.70;;;12.20;99.90;;;;;;5035057;28;20581;-51
2022/09/02 03:56:41;;;;;;;3.38;1.77;;;12.20;99.90;;;;;;5034013;28;20045;-60
2022/09/02 03:59:08;;;;;;;3.40;1.58;;;12.10;99.90;;;;;;5019223;28;20794;-52
2022/09/02 04:01:35;;;;;;;3.10;1.70;;;12.10;99.90;;;;;;5047823;28;20131;-51
2022/09/02 04:04:04;;;;;;;3.83;1.63;;;12.10;99.90;;;;;;5043458;28;20045;-60
2022/09/02 04:06:32;;;;;;;3.25;1.60;;;12.10;99.90;;;;;;5040935;28;20613;-50
2022/09/02 04:08:59;;;;;;;7.97;2.13;;;12.10;99.90;;;;;;5024426;28;20598;-49
2022/09/02 04:11:25;;;;;;;3.00;1.58;;;12.00;99.90;;;;;;5035172;28;20775;-53
2022/09/02 04:13:53;;;;;;;3.75;1.70;;;12.10;99.90;;;;;;5030077;28;20052;-60
2022/09/02 04:16:27;;;;;;;2.20;1.70;;;12.10;99.90;;;;;;5036118;28;20050;-60
2022/09/02 04:18:56;;;;;;;4.32;1.67;;;12.10;99.90;;;;;;5027754;28;20037;-60
2022/09/02 04:21:23;;;;;;;6.50;2.08;;;12.10;99.90;;;;;;5028038;28;20044;-52
2022/09/02 04:23:51;;;;;;;5.57;1.52;;;12.10;99.90;;;;;;5050871;28;20118;-52
2022/09/02 04:26:20;;;;;;;2.70;1.85;;;12.10;99.90;;;;;;5020712;28;20045;-54
2022/09/02 04:28:50;;;;;;;5.72;1.80;;;12.10;99.90;;;;;;5017244;28;20052;-60
2022/09/02 04:31:19;;;;;;;2.58;1.52;;;12.00;99.90;;;;;;5025055;28;20056;-60
2022/09/02 04:33:46;;;;;;;6.13;1.77;;;12.00;99.90;;;;;;5052385;28;21176;-60
2022/09/02 04:36:17;;;;;;;2.67;1.80;;;12.10;99.90;;;;;;5002934;28;20128;-61
2022/09/02 04:38:45;;;;;;;3.08;1.77;;;12.00;99.90;;;;;;5025140;28;20051;-59
2022/09/02 04:41:23;;;;;;;5.97;2.20;;;12.10;99.90;;;;;;5054051;28;20107;-59
2022/09/02 04:43:54;;;;;;;3.10;1.42;;;12.10;99.90;;;;;;5030743;28;20049;-59
2022/09/02 04:46:22;;;;;;;4.72;1.92;;;12.00;99.90;;;;;;5025418;28;20045;-59
2022/09/02 04:48:48;;;;;;;2.45;1.50;;;12.00;99.90;;;;;;5040741;28;20785;-59
2022/09/02 04:51:17;;;;;;;4.68;1.80;;;12.10;99.90;;;;;;5021495;28;20434;-53
2022/09/02 04:53:46;;;;;;;4.57;1.95;;;12.00;99.90;;;;;;5054779;28;20053;-50
2022/09/02 04:56:17;;;;;;;6.10;1.88;;;12.00;99.90;;;;;;5031355;28;20577;-52
2022/09/02 04:58:44;;;;;;;3.90;1.88;;;12.10;99.90;;;;;;5036749;28;20121;-50
2022/09/02 05:01:16;;;;;;;3.70;1.70;;;12.00;99.90;;;;;;5018515;28;20053;-59
2022/09/02 05:03:44;;;;;;;4.57;2.07;;;12.00;99.90;;;;;;5017955;28;20057;-59
2022/09/02 05:06:14;;;;;;;4.20;1.63;;;12.10;99.90;;;;;;5026957;28;20311;-52
2022/09/02 05:08:41;;;;;;;3.95;1.67;;;12.20;99.90;;;;;;5041800;28;20745;-61
2022/09/02 05:11:12;;;;;;;2.83;1.60;;;12.20;99.90;;;;;;5016590;28;20041;-49
2022/09/02 05:13:39;;;;;;;2.70;1.80;;;12.20;99.90;;;;;;5018242;28;20037;-60
2022/09/02 05:16:06;;;;;;;3.58;2.08;;;12.20;99.90;;;;;;5045080;28;20124;-59
2022/09/02 05:18:33;;;;;;;2.88;1.90;;;12.20;99.90;;;;;;5024745;28;20804;-59
2022/09/02 05:21:05;;;;;;;3.65;1.80;;;12.30;99.90;;;;;;5049853;28;20064;-60
2022/09/02 05:23:31;;;;;;;3.10;1.83;;;12.30;99.90;;;;;;5035753;28;20064;-59
2022/09/02 05:25:57;;;;;;;3.60;1.98;;;12.30;99.90;;;;;;5029294;28;20103;-59
2022/09/02 05:28:24;;;;;;;3.17;1.90;;;12.40;99.90;;;;;;5024682;28;20467;-59
2022/09/02 05:30:50;;;;;;;4.63;2.00;;;12.40;99.90;;;;;;5024746;28;20084;-57
2022/09/02 05:33:16;;;;;;;6.25;3.42;;;12.50;99.90;;;;;;5024877;28;20045;-49
2022/09/02 05:35:46;;;;;;;8.70;4.28;;;12.50;99.90;;;;;;5026511;28;20396;-59
2022/09/02 05:38:16;;;;;;;3.28;2.00;;;12.60;99.90;;;;;;5031380;28;20128;-59
2022/09/02 05:40:42;;;;;;;3.65;2.08;;;12.70;99.90;;;;;;5052710;28;20049;-59
2022/09/02 05:43:09;;;;;;;4.35;1.55;;;12.80;99.90;;;;;;5027409;28;20769;-59
2022/09/02 05:45:37;;;;;;;3.55;2.20;;;12.90;99.90;;;;;;5050307;28;20105;-59
2022/09/02 05:49:04;;;;;;;4.53;2.78;;;13.10;99.90;;;;;;5007634;28;20091;-59
2022/09/02 05:50:51;;;;;;;2.33;1.48;;;13.20;99.90;;;;;;5048930;28;20055;-59
2022/09/02 05:53:18;;;;;;;5.30;2.53;;;13.40;99.90;;;;;;5029351;28;20048;-59
2022/09/02 05:55:45;;;;;;;3.63;2.03;;;13.50;99.90;;;;;;5022488;28;20107;-59
2022/09/02 05:58:11;;;;;;;3.67;1.60;;;13.50;99.90;;;;;;5028666;28;20056;-57
2022/09/02 06:00:39;;;;;;;6.53;4.40;;;13.60;99.90;;;;;;5028096;28;20053;-59
2022/09/02 06:03:05;;;;;;;16.63;12.70;;;13.70;99.90;;;;;;5026498;28;20053;-59
2022/09/02 06:05:37;;;;;;;8.95;6.78;;;13.90;99.90;;;;;;5025923;28;20057;-59
2022/09/02 06:08:12;;;;;;;2.80;1.52;;;14.00;99.90;;;;;;5014132;28;20123;-53
2022/09/02 06:10:42;;;;;;;4.97;1.40;;;14.20;99.90;;;;;;5042513;28;20056;-52
2022/09/02 06:13:10;;;;;;;3.15;1.60;;;14.30;99.90;;;;;;5019262;28;20106;-52
2022/09/02 06:15:42;;;;;;;5.53;3.38;;;14.50;99.90;;;;;;5026593;28;20045;-60
2022/09/02 06:18:11;;;;;;;8.95;5.70;;;14.70;99.90;;;;;;5028627;28;20055;-59
2022/09/02 06:20:44;;;;;;;4.43;1.80;;;14.90;99.90;;;;;;5028250;28;20064;-58
2022/09/02 06:23:11;;;;;;;2.55;1.55;;;15.00;99.90;;;;;;5031145;28;20052;-60
2022/09/02 06:25:43;;;;;;;7.72;5.15;;;15.20;99.90;;;;;;5023446;28;20052;-59
2022/09/02 06:28:11;;;;;;;2.85;1.38;;;15.30;99.90;;;;;;5010887;28;20895;-60
2022/09/02 06:30:42;;;;;;;5.50;1.50;;;15.50;99.90;;;;;;5039399;28;20879;-60
2022/09/02 06:33:10;;;;;;;5.35;1.48;;;15.70;99.90;;;;;;5026233;28;21004;-59
2022/09/02 06:35:40;;;;;;;8.32;4.97;;;15.70;99.90;;;;;;5042706;28;20048;-60
2022/09/02 06:38:09;;;;;;;;;;;15.90;99.90;;;;;;5049286;28;20132;-59
2022/09/02 06:40:44;;;;;;;3.25;1.27;;;16.10;99.90;;;;;;5033225;28;19932;-60
2022/09/02 06:43:11;;;;;;;4.60;2.25;;;16.20;99.90;;;;;;5051319;28;20048;-52
2022/09/02 06:45:51;;;;;;;3.42;1.25;;;16.30;99.90;;;;;;5045151;28;20067;-51
2022/09/02 06:48:18;;;;;;;3.78;1.30;;;16.50;99.90;;;;;;5047040;28;20053;-50
2022/09/02 06:50:46;;;;;;;8.00;5.03;;;16.70;99.90;;;;;;5029346;28;20094;-52
2022/09/02 06:53:13;;;;;;;1.85;1.48;;;16.80;99.90;;;;;;5036250;28;20124;-60
2022/09/02 06:55:43;;;;;;;11.93;8.98;;;17.00;99.90;;;;;;5027858;28;20373;-59
2022/09/02 06:58:10;;;;;;;3.00;1.50;;;17.20;99.90;;;;;;5044045;28;20430;-58
2022/09/02 07:00:39;;;;;;;25.05;22.42;;;17.30;99.90;;;;;;5030763;28;20516;-59
2022/09/02 07:06:08;;;;;;;15.32;13.45;;;18.00;99.90;;;;;;5044193;28;20113;-58
2022/09/02 07:08:38;;;;;;;14.40;12.95;;;18.30;99.90;;;;;;5042683;28;20056;-60
2022/09/02 07:11:07;;;;;;;5.00;3.78;;;18.70;99.90;;;;;;5019036;28;20714;-48
2022/09/02 07:13:34;;;;;;;2.72;1.30;;;19.10;99.90;;;;;;5031509;28;21343;-49
2022/09/02 07:16:00;;;;;;;5.35;3.47;;;19.20;99.90;;;;;;5039193;28;20057;-58
2022/09/02 07:18:27;;;;;;;2.90;1.25;;;19.20;99.90;;;;;;5016706;28;20059;-58
2022/09/02 07:20:53;;;;;;;2.75;1.25;;;19.30;99.90;;;;;;5033699;28;20049;-57
2022/09/02 07:23:20;;;;;;;12.88;10.55;;;19.20;99.90;;;;;;5041939;28;20058;-58
2022/09/02 07:25:47;;;;;;;4.07;2.70;;;19.30;99.90;;;;;;5017537;28;20125;-58
2022/09/02 07:28:17;;;;;;;10.18;8.40;;;19.80;99.90;;;;;;5052225;28;20053;-58
2022/09/02 07:30:44;;;;;;;4.75;1.70;;;20.00;99.90;;;;;;5037197;28;20591;-58
2022/09/02 07:33:14;;;;;;;2.53;1.50;;;20.40;99.90;;;;;;5050231;28;20037;-58
2022/09/02 07:35:44;;;;;;;4.50;3.65;;;20.60;99.90;;;;;;5054927;28;20142;-58
2022/09/02 07:38:14;;;;;;;5.43;1.60;;;21.10;99.90;;;;;;4989354;28;20049;-58
2022/09/02 07:40:41;;;;;;;5.30;3.35;;;21.40;98.80;;;;;;5054879;28;20044;-58
2022/09/02 07:43:09;;;;;;;4.93;2.83;;;21.60;98.00;;;;;;5020752;28;21190;-58
2022/09/02 07:45:37;;;;;;;9.10;6.07;;;21.40;96.90;;;;;;5034975;28;20045;-58
2022/09/02 07:48:07;;;;;;;4.63;1.20;;;21.60;96.00;;;;;;5053955;28;20049;-58
2022/09/02 07:50:37;;;;;;;3.85;1.35;;;21.80;95.30;;;;;;5044219;28;20045;-59
2022/09/02 07:53:06;;;;;;;3.97;2.45;;;21.90;95.00;;;;;;5052322;28;20626;-51
2022/09/02 07:55:35;;;;;;;2.60;1.10;;;21.90;95.40;;;;;;5036621;28;20059;-56
2022/09/02 07:58:03;;;;;;;4.20;1.67;;;22.30;94.50;;;;;;5033500;28;20053;-49
2022/09/02 08:00:30;;;;;;;3.90;2.55;;;22.80;93.90;;;;;;5026673;28;20345;-52
2022/09/02 08:03:04;;;;;;;4.22;2.28;;;23.00;93.00;;;;;;5033866;28;20453;-48
2022/09/02 08:05:35;;;;;;;1.95;1.15;;;23.20;91.90;;;;;;5029892;28;20393;-49
2022/09/02 08:08:02;;;;;;;6.32;3.35;;;23.10;91.00;;;;;;5052215;28;20479;-57
2022/09/02 08:10:29;;;;;;;4.43;1.50;;;23.00;90.00;;;;;;5036768;28;20414;-58
2022/09/02 08:12:59;;;;;;;2.33;1.38;;;23.00;90.30;;;;;;5040594;28;20117;-58
2022/09/02 08:15:27;;;;;;;4.25;1.67;;;23.20;89.50;;;;;;5034787;28;20086;-58
2022/09/02 08:17:55;;;;;;;6.22;3.30;;;23.40;88.40;;;;;;5033390;28;20045;-58
2022/09/02 08:20:22;;;;;;;2.67;1.48;;;23.90;89.20;;;;;;5039925;28;20127;-58
2022/09/02 08:22:48;;;;;;;5.43;1.63;;;23.90;85.30;;;;;;5036398;28;20598;-58
2022/09/02 08:25:17;;;;;;;3.85;1.35;;;24.10;83.00;;;;;;5011432;28;20083;-58
2022/09/02 08:27:44;;;;;;;3.50;1.50;;;24.10;80.50;;;;;;5042645;28;20067;-58
2022/09/02 08:30:11;;;;;;;3.88;1.63;;;23.90;81.70;;;;;;5051465;28;20045;-58
2022/09/02 08:32:38;;;;;;;3.92;1.20;;;24.10;80.00;;;;;;5035422;28;20367;-58
2022/09/02 08:35:07;;;;;;;4.78;1.33;;;24.10;78.90;;;;;;5033962;28;20095;-58
2022/09/02 08:37:34;;;;;;;5.05;1.48;;;24.30;77.20;;;;;;5032428;28;20053;-58
2022/09/02 08:40:03;;;;;;;3.30;1.02;;;24.50;77.30;;;;;;5034322;28;20578;-58
2022/09/02 08:42:44;;;;;;;3.95;1.92;;;24.70;75.60;;;;;;5031960;28;20144;-56
2022/09/02 08:45:20;;;;;;;;;;;24.70;74.10;;;;;;5005812;28;20049;-56
2022/09/02 08:47:54;;;;;;;4.18;1.95;;;25.10;73.10;;;;;;5038402;28;20406;-56
2022/09/02 08:50:21;;;;;;;3.00;2.05;;;25.20;72.10;;;;;;5018575;28;20135;-58
2022/09/02 08:52:56;;;;;;;4.93;1.90;;;25.30;71.30;;;;;;5021262;28;20159;-56
2022/09/02 08:55:28;;;;;;;4.68;2.22;;;25.60;69.80;;;;;;5039418;28;20033;-58
2022/09/02 08:57:56;;;;;;;3.03;1.38;;;25.50;69.80;;;;;;5034793;28;20087;-56
2022/09/02 09:00:22;;;;;;;3.03;1.42;;;25.90;69.40;;;;;;5039507;28;20122;-57
2022/09/02 09:03:13;;;;;;;3.67;1.05;;;26.10;68.60;;;;;;5020169;28;20553;-57
2022/09/02 09:06:09;;;;;;;2.25;1.45;;;26.30;66.60;;;;;;5035231;28;20594;-58
2022/09/02 09:08:49;;;;;;;3.25;0.98;;;26.40;64.50;;;;;;5038196;28;20060;-58
2022/09/02 09:11:21;;;;;;;5.25;1.42;;;26.30;62.30;;;;;;5036168;28;20055;-57
2022/09/02 09:14:09;;;;;;;5.30;2.08;;;26.10;63.40;;;;;;5048040;28;20048;-57
2022/09/02 09:16:52;;;;;;;4.28;1.17;;;26.50;61.30;;;;;;5033154;28;20048;-57
2022/09/02 09:19:47;;;;;;;6.78;1.25;;;26.50;60.40;;;;;;5035299;28;20054;-57
2022/09/02 09:22:17;;;;;;;2.97;1.08;;;27.00;61.60;;;;;;5038193;28;20036;-57
2022/09/02 09:24:46;;;;;;;2.38;0.75;;;27.00;59.10;;;;;;5032661;28;20160;-56
2022/09/02 09:27:14;;;;;;;3.78;1.30;;;26.60;59.50;;;;;;5034294;28;20786;-56
2022/09/02 09:29:41;;;;;;;4.13;1.42;;;26.90;59.30;;;;;;5034748;28;20044;-56
2022/09/02 09:32:28;;;;;;;3.88;1.10;;;26.90;59.20;;;;;;5035344;28;20131;-56
2022/09/02 09:35:12;;;;;;;10.50;7.30;;;27.10;59.00;;;;;;5018361;28;20106;-56
2022/09/02 09:37:41;;;;;;;6.07;2.90;;;27.50;57.50;;;;;;5009636;28;20037;-56
2022/09/02 09:40:17;;;;;;;5.75;3.60;;;28.10;56.30;;;;;;5034664;28;20045;-57
2022/09/02 09:42:44;;;;;;;5.20;2.63;;;28.20;54.60;;;;;;5016880;28;20056;-57
2022/09/02 09:45:16;;;;;;;25.88;23.60;;;28.10;53.30;;;;;;5030537;28;20056;-56
2022/09/02 09:47:42;;;;;;;7.20;6.05;;;27.90;53.20;;;;;;5033534;28;20049;-59
2022/09/02 09:50:10;;;;;;;13.38;9.80;;;28.00;53.80;;;;;;5029400;28;20086;-56
2022/09/02 09:52:37;;;;;;;10.32;9.13;;;28.20;53.80;;;;;;5047069;28;20071;-57
2022/09/02 09:55:20;;;;;;;8.85;7.68;;;28.20;52.70;;;;;;5030278;28;20044;-57
2022/09/02 09:57:48;;;;;;;15.63;14.13;;;28.30;50.30;;;;;;5023846;28;20856;-57
2022/09/02 10:00:32;;;;;;;6.25;4.85;;;28.30;50.40;;;;;;5022923;28;20053;-57
2022/09/02 10:03:02;;;;;;;3.35;1.20;;;28.30;50.60;;;;;;5025062;28;20160;-57
2022/09/02 10:05:37;;;;;;;3.80;1.90;;;28.40;49.40;;;;;;5025571;28;20136;-52
2022/09/02 10:08:14;;;;;;;6.00;4.88;;;28.60;49.90;;;;;;5037918;28;20312;-58
2022/09/02 10:10:56;;;;;;;3.08;1.80;;;28.80;49.40;;;;;;5015192;28;20347;-57
2022/09/02 10:13:26;;;;;;;2.38;1.15;;;29.30;47.60;;;;;;5027715;28;20045;-58
2022/09/02 10:16:28;;;;;;;2.28;0.93;;;29.10;47.10;;;;;;5029267;28;20045;-57
2022/09/02 10:19:09;;;;;;;4.72;1.20;;;29.30;45.80;;;;;;5049900;28;20059;-51
2022/09/02 10:21:58;;;;;;;4.65;1.30;;;28.70;46.30;;;;;;5030377;28;20143;-49
2022/09/02 10:24:54;;;;;;;3.35;0.98;;;28.80;47.10;;;;;;5026117;28;20053;-52
2022/09/02 10:27:57;;;;;;;4.05;1.13;;;28.80;45.70;;;;;;5032812;28;20051;-53
2022/09/02 10:30:24;;;;;;;1.95;0.65;;;28.80;45.70;;;;;;5031857;28;20330;-51
2022/09/02 10:33:29;;;;;;;2.50;1.02;;;29.60;45.70;;;;;;5045938;28;20045;-51
2022/09/02 10:36:18;;;;;;;4.15;0.73;;;29.50;43.90;;;;;;5037728;28;20090;-51
2022/09/02 10:38:47;;;;;;;1.40;0.70;;;29.30;43.90;;;;;;5025705;28;20060;-53
2022/09/02 10:41:41;;;;;;;3.03;0.70;;;29.50;43.70;;;;;;5032265;28;20060;-51
2022/09/02 10:44:32;;;;;;;10.65;8.27;;;29.30;43.30;;;;;;5024457;28;20045;-51
2022/09/02 10:47:00;;;;;;;11.10;8.48;;;29.80;42.40;;;;;;5027192;28;20044;-50
2022/09/02 10:49:38;;;;;;;4.32;3.25;;;29.60;42.30;;;;;;5014734;28;20192;-58
2022/09/02 10:52:13;;;;;;;10.25;7.80;;;29.80;42.80;;;;;;5028536;28;20041;-49
2022/09/02 10:55:16;;;;;;;4.43;3.50;;;29.90;42.10;;;;;;5031486;28;20728;-50
2022/09/02 10:57:51;;;;;;;7.28;6.57;;;30.00;42.80;;;;;;5018394;28;20052;-52
2022/09/02 11:00:20;;;;;;;4.28;1.90;;;30.60;42.80;;;;;;5046030;28;20178;-52
2022/09/02 11:02:49;;;;;;;9.18;6.25;;;30.90;41.80;;;;;;5014687;28;20136;-50
2022/09/02 11:05:27;;;;;;;7.90;7.10;;;30.40;41.40;;;;;;5041422;28;20053;-49
2022/09/02 11:08:09;;;;;;;3.30;2.03;;;30.40;42.70;;;;;;5031494;28;20041;-51
2022/09/02 11:10:55;;;;;;;3.65;1.58;;;30.40;41.80;;;;;;5031406;28;20067;-52
2022/09/02 11:13:51;;;;;;;1.63;1.08;;;30.00;40.60;;;;;;5037724;28;20056;-46
2022/09/02 11:16:19;;;;;;;2.50;1.23;;;30.20;41.90;;;;;;5044192;28;20045;-49
2022/09/02 11:19:01;;;;;;;4.55;3.25;;;30.00;41.20;;;;;;5027867;28;20598;-49
2022/09/02 11:21:59;;;;;;;16.58;13.73;;;30.20;41.10;;;;;;5027442;28;20053;-57
2022/09/02 11:24:30;;;;;;;4.75;3.28;;;30.40;41.40;;;;;;5028723;28;20136;-51
2022/09/02 11:27:03;;;;;;;12.02;10.35;;;30.50;40.10;;;;;;5025968;28;20049;-50
2022/09/02 11:29:43;;;;;;;5.55;3.42;;;30.40;40.80;;;;;;5041435;28;20045;-49
2022/09/02 11:32:58;;;;;;;5.03;3.75;;;30.70;40.90;;;;;;5039254;28;20045;-57
2022/09/02 11:35:27;;;;;;;5.05;0.95;;;30.10;40.10;;;;;;5025178;28;20774;-57
2022/09/02 11:38:04;;;;;;;8.95;2.25;;;29.90;39.80;;;;;;5009900;28;20050;-51
2022/09/02 11:40:42;;;;;;;5.03;1.17;;;29.80;41.10;;;;;;5031907;28;20056;-61
2022/09/02 11:43:46;;;;;;;16.55;13.45;;;30.20;40.10;;;;;;5033462;28;20053;-58
2022/09/02 11:46:32;;;;;;;6.95;4.45;;;30.40;40.70;;;;;;5034792;28;20131;-53
2022/09/02 11:49:17;;;;;;;3.40;2.03;;;30.70;40.50;;;;;;5030804;28;20057;-54
2022/09/02 11:51:46;;;;;;;4.07;2.42;;;30.80;39.50;;;;;;5030742;28;20644;-54
2022/09/02 11:54:17;;;;;;;3.25;1.60;;;30.90;40.20;;;;;;5048333;28;20045;-57
2022/09/02 11:56:48;;;;;;;6.00;2.05;;;30.80;40.40;;;;;;5013581;28;20119;-58
2022/09/02 11:59:23;;;;;;;5.43;2.97;;;30.60;40.00;;;;;;5031205;28;20121;-57
2022/09/02 12:01:52;;;;;;;4.13;1.52;;;30.30;39.70;;;;;;5033589;28;20056;-59
2022/09/02 12:04:25;;;;;;;2.45;0.80;;;30.60;40.10;;;;;;5041844;28;20779;-58
2022/09/02 12:07:11;;;;;;;5.55;1.85;;;30.70;39.10;;;;;;5033647;28;20060;-59
2022/09/02 12:09:56;;;;;;;2.78;0.93;;;30.60;39.90;;;;;;5039611;28;20562;-59
2022/09/02 12:12:37;;;;;;;10.48;6.82;;;30.70;39.20;;;;;;5034992;28;20052;-49
2022/09/02 12:15:03;;;;;;;2.33;0.73;;;30.70;40.40;;;;;;5030738;28;20668;-49
2022/09/02 12:17:48;;;;;;;5.45;1.23;;;30.80;39.80;;;;;;5042902;28;20866;-47
2022/09/02 12:20:37;;;;;;;3.45;0.95;;;31.40;40.20;;;;;;5033541;28;20048;-48
2022/09/02 12:23:08;;;;;;;1.48;0.88;;;31.40;39.20;;;;;;5033355;28;20515;-46
2022/09/02 12:25:59;;;;;;;2.45;0.90;;;31.20;39.10;;;;;;5048044;28;20053;-47
2022/09/02 12:28:29;;;;;;;4.15;1.05;;;31.20;39.60;;;;;;5024263;28;20377;-47
2022/09/02 12:30:55;;;;;;;4.93;1.65;;;31.10;39.40;;;;;;5044728;28;20393;-49
2022/09/02 12:33:33;;;;;;;19.42;5.80;;;31.00;39.30;;;;;;5027663;28;20055;-48
2022/09/02 12:35:59;;;;;;;28.38;25.70;;;31.00;38.70;;;;;;5030924;28;20063;-47
2022/09/02 12:38:41;;;;;;;27.50;25.23;;;31.20;39.50;;;;;;5036390;28;20048;-45
2022/09/02 12:41:19;;;;;;;6.45;1.42;;;31.50;38.80;;;;;;5031054;28;20359;-52
2022/09/02 12:43:49;;;;;;;6.18;1.70;;;31.90;38.80;;;;;;5044751;28;20138;-51
2022/09/02 12:47:13;;;;;;;5.53;1.98;;;32.00;38.20;;;;;;5029956;28;20108;-53
2022/09/02 12:49:47;;;;;;;3.90;1.38;;;31.70;38.00;;;;;;5034896;28;20178;-55
2022/09/02 12:52:35;;;;;;;1.45;0.90;;;31.40;38.00;;;;;;5029077;28;20041;-49
2022/09/02 12:55:26;;;;;;;6.03;3.67;;;31.20;38.90;;;;;;5012729;28;20083;-51
2022/09/02 12:58:11;;;;;;;8.85;2.92;;;31.10;37.80;;;;;;5028396;28;20465;-51
2022/09/02 13:01:12;;;;;;;4.38;1.60;;;31.30;38.50;;;;;;5008782;28;20056;-63
2022/09/02 13:03:53;;;;;;;2.78;1.50;;;31.70;38.50;;;;;;5048075;28;20049;-63
2022/09/02 13:06:46;;;;;;;5.38;0.90;;;31.80;37.70;;;;;;5043130;28;20409;-64
2022/09/02 13:10:07;;;;;;;3.35;1.10;;;31.50;38.10;;;;;;5050014;28;20072;-63
2022/09/02 13:13:06;;;;;;;2.60;1.10;;;31.60;38.90;;;;;;5012483;28;20786;-63
2022/09/02 13:15:56;;;;;;;3.00;0.90;;;32.20;38.00;;;;;;4968433;28;21015;-59